sensor_id;sensor_type;location;lat;lon;timestamp;P1;durP1;ratioP1;P2;durP2;ratioP2
71648;SDS011;70112;45.624;11.760;2024-03-08T00:00:14;12.20;;;9.30;;
71648;SDS011;70112;45.624;11.760;2024-03-08T00:02:44;9.30;;;7.60;;
71648;SDS011;70112;45.624;11.760;2024-03-08T00:05:11;11.20;;;7.60;;
71648;SDS011;70112;45.624;11.760;2024-03-08T00:07:37;11.30;;;8.90;;
71648;SDS011;70112;45.624;11.760;2024-03-08T00:10:04;11.10;;;8.70;;
71648;SDS011;70112;45.624;11.760;2024-03-08T00:12:30;12.40;;;8.70;;
71648;SDS011;70112;45.624;11.760;2024-03-08T00:14:56;10.90;;;8.00;;
71648;SDS011;70112;45.624;11.760;2024-03-08T00:17:21;11.00;;;9.10;;
71648;SDS011;70112;45.624;11.760;2024-03-08T00:19:50;10.40;;;8.60;;
71648;SDS011;70112;45.624;11.760;2024-03-08T00:22:16;11.10;;;7.90;;
71648;SDS011;70112;45.624;11.760;2024-03-08T00:24:42;10.70;;;8.30;;
71648;SDS011;70112;45.624;11.760;2024-03-08T00:27:08;11.40;;;8.70;;
71648;SDS011;70112;45.624;11.760;2024-03-08T00:29:34;11.80;;;9.10;;
71648;SDS011;70112;45.624;11.760;2024-03-08T00:32:00;10.10;;;7.80;;
71648;SDS011;70112;45.624;11.760;2024-03-08T00:34:26;10.40;;;8.20;;
71648;SDS011;70112;45.624;11.760;2024-03-08T00:36:52;9.80;;;8.10;;
71648;SDS011;70112;45.624;11.760;2024-03-08T00:39:18;10.50;;;7.90;;
71648;SDS011;70112;45.624;11.760;2024-03-08T00:41:46;9.90;;;8.30;;
71648;SDS011;70112;45.624;11.760;2024-03-08T00:44:11;11.00;;;7.90;;
71648;SDS011;70112;45.624;11.760;2024-03-08T00:46:37;10.50;;;8.30;;
71648;SDS011;70112;45.624;11.760;2024-03-08T00:49:03;12.90;;;8.90;;
71648;SDS011;70112;45.624;11.760;2024-03-08T00:51:29;9.30;;;7.30;;
71648;SDS011;70112;45.624;11.760;2024-03-08T00:53:54;9.90;;;7.90;;
71648;SDS011;70112;45.624;11.760;2024-03-08T00:56:20;10.50;;;7.70;;
71648;SDS011;70112;45.624;11.760;2024-03-08T00:58:45;10.30;;;8.00;;
71648;SDS011;70112;45.624;11.760;2024-03-08T01:01:13;8.60;;;7.50;;
71648;SDS011;70112;45.624;11.760;2024-03-08T01:03:42;9.90;;;7.80;;
71648;SDS011;70112;45.624;11.760;2024-03-08T01:06:08;9.90;;;7.80;;
71648;SDS011;70112;45.624;11.760;2024-03-08T01:08:34;11.10;;;8.20;;
71648;SDS011;70112;45.624;11.760;2024-03-08T01:10:59;9.00;;;7.50;;
71648;SDS011;70112;45.624;11.760;2024-03-08T01:13:25;9.40;;;7.70;;
71648;SDS011;70112;45.624;11.760;2024-03-08T01:15:50;10.00;;;7.80;;
71648;SDS011;70112;45.624;11.760;2024-03-08T01:18:15;9.60;;;7.70;;
71648;SDS011;70112;45.624;11.760;2024-03-08T01:20:41;8.50;;;7.30;;
71648;SDS011;70112;45.624;11.760;2024-03-08T01:23:07;8.90;;;6.90;;
71648;SDS011;70112;45.624;11.760;2024-03-08T01:25:33;9.50;;;7.50;;
71648;SDS011;70112;45.624;11.760;2024-03-08T01:27:59;10.60;;;7.70;;
71648;SDS011;70112;45.624;11.760;2024-03-08T01:30:25;10.70;;;7.90;;
71648;SDS011;70112;45.624;11.760;2024-03-08T01:32:50;9.10;;;7.90;;
71648;SDS011;70112;45.624;11.760;2024-03-08T01:35:16;10.20;;;7.40;;
71648;SDS011;70112;45.624;11.760;2024-03-08T01:37:41;7.90;;;6.40;;
71648;SDS011;70112;45.624;11.760;2024-03-08T01:40:07;9.90;;;6.40;;
71648;SDS011;70112;45.624;11.760;2024-03-08T01:42:34;9.00;;;6.90;;
71648;SDS011;70112;45.624;11.760;2024-03-08T01:45:05;9.50;;;7.30;;
71648;SDS011;70112;45.624;11.760;2024-03-08T01:47:32;9.80;;;7.10;;
71648;SDS011;70112;45.624;11.760;2024-03-08T01:49:59;9.30;;;7.00;;
71648;SDS011;70112;45.624;11.760;2024-03-08T01:52:31;7.90;;;6.10;;
71648;SDS011;70112;45.624;11.760;2024-03-08T01:55:02;8.40;;;6.90;;
71648;SDS011;70112;45.624;11.760;2024-03-08T01:57:32;10.10;;;6.40;;
71648;SDS011;70112;45.624;11.760;2024-03-08T02:00:01;9.20;;;5.70;;
71648;SDS011;70112;45.624;11.760;2024-03-08T02:02:32;15.80;;;5.80;;
71648;SDS011;70112;45.624;11.760;2024-03-08T02:05:00;9.80;;;6.00;;
71648;SDS011;70112;45.624;11.760;2024-03-08T02:07:26;12.20;;;6.50;;
71648;SDS011;70112;45.624;11.760;2024-03-08T02:09:51;10.00;;;5.90;;
71648;SDS011;70112;45.624;11.760;2024-03-08T02:12:17;7.80;;;5.90;;
71648;SDS011;70112;45.624;11.760;2024-03-08T02:14:45;6.80;;;5.90;;
71648;SDS011;70112;45.624;11.760;2024-03-08T02:17:12;6.80;;;5.70;;
71648;SDS011;70112;45.624;11.760;2024-03-08T02:19:38;8.00;;;5.40;;
71648;SDS011;70112;45.624;11.760;2024-03-08T02:22:03;8.80;;;6.10;;
71648;SDS011;70112;45.624;11.760;2024-03-08T02:24:31;7.60;;;5.90;;
71648;SDS011;70112;45.624;11.760;2024-03-08T02:26:57;8.90;;;5.90;;
71648;SDS011;70112;45.624;11.760;2024-03-08T02:29:24;7.40;;;6.20;;
71648;SDS011;70112;45.624;11.760;2024-03-08T02:31:51;6.70;;;5.60;;
71648;SDS011;70112;45.624;11.760;2024-03-08T02:34:16;8.70;;;5.70;;
71648;SDS011;70112;45.624;11.760;2024-03-08T02:36:42;8.00;;;6.00;;
71648;SDS011;70112;45.624;11.760;2024-03-08T02:41:32;9.20;;;6.20;;
71648;SDS011;70112;45.624;11.760;2024-03-08T02:43:58;7.10;;;6.00;;
71648;SDS011;70112;45.624;11.760;2024-03-08T02:46:25;8.30;;;5.90;;
71648;SDS011;70112;45.624;11.760;2024-03-08T02:48:50;8.40;;;5.90;;
71648;SDS011;70112;45.624;11.760;2024-03-08T02:51:16;7.60;;;6.00;;
71648;SDS011;70112;45.624;11.760;2024-03-08T02:53:41;8.90;;;6.30;;
71648;SDS011;70112;45.624;11.760;2024-03-08T02:56:08;7.70;;;5.90;;
71648;SDS011;70112;45.624;11.760;2024-03-08T02:58:38;8.00;;;6.30;;
71648;SDS011;70112;45.624;11.760;2024-03-08T03:01:03;8.10;;;6.20;;
71648;SDS011;70112;45.624;11.760;2024-03-08T03:03:28;9.10;;;6.10;;
71648;SDS011;70112;45.624;11.760;2024-03-08T03:05:54;8.40;;;6.50;;
71648;SDS011;70112;45.624;11.760;2024-03-08T03:08:22;7.60;;;6.10;;
71648;SDS011;70112;45.624;11.760;2024-03-08T03:10:49;8.40;;;6.30;;
71648;SDS011;70112;45.624;11.760;2024-03-08T03:13:14;9.70;;;7.20;;
71648;SDS011;70112;45.624;11.760;2024-03-08T03:15:40;8.90;;;6.50;;
71648;SDS011;70112;45.624;11.760;2024-03-08T03:18:08;8.90;;;5.80;;
71648;SDS011;70112;45.624;11.760;2024-03-08T03:20:34;7.70;;;6.40;;
71648;SDS011;70112;45.624;11.760;2024-03-08T03:23:05;9.20;;;6.70;;
71648;SDS011;70112;45.624;11.760;2024-03-08T03:25:34;7.30;;;5.50;;
71648;SDS011;70112;45.624;11.760;2024-03-08T03:28:04;6.70;;;5.50;;
71648;SDS011;70112;45.624;11.760;2024-03-08T03:30:30;8.70;;;6.60;;
71648;SDS011;70112;45.624;11.760;2024-03-08T03:33:02;9.20;;;6.50;;
71648;SDS011;70112;45.624;11.760;2024-03-08T03:37:57;7.20;;;5.70;;
71648;SDS011;70112;45.624;11.760;2024-03-08T03:40:38;9.10;;;6.10;;
71648;SDS011;70112;45.624;11.760;2024-03-08T03:43:05;7.30;;;6.00;;
71648;SDS011;70112;45.624;11.760;2024-03-08T03:45:31;7.30;;;5.50;;
71648;SDS011;70112;45.624;11.760;2024-03-08T03:48:01;6.70;;;5.60;;
71648;SDS011;70112;45.624;11.760;2024-03-08T03:50:28;6.50;;;5.50;;
71648;SDS011;70112;45.624;11.760;2024-03-08T03:52:53;7.90;;;6.10;;
71648;SDS011;70112;45.624;11.760;2024-03-08T03:55:18;6.60;;;5.40;;
71648;SDS011;70112;45.624;11.760;2024-03-08T03:57:45;5.40;;;4.70;;
71648;SDS011;70112;45.624;11.760;2024-03-08T04:00:11;5.60;;;4.70;;
71648;SDS011;70112;45.624;11.760;2024-03-08T04:02:38;5.20;;;4.50;;
71648;SDS011;70112;45.624;11.760;2024-03-08T04:05:05;5.00;;;4.20;;
71648;SDS011;70112;45.624;11.760;2024-03-08T04:07:32;4.50;;;4.00;;
71648;SDS011;70112;45.624;11.760;2024-03-08T04:09:57;4.30;;;3.90;;
71648;SDS011;70112;45.624;11.760;2024-03-08T04:12:23;5.50;;;4.10;;
71648;SDS011;70112;45.624;11.760;2024-03-08T04:14:48;4.00;;;3.60;;
71648;SDS011;70112;45.624;11.760;2024-03-08T04:17:15;4.70;;;3.80;;
71648;SDS011;70112;45.624;11.760;2024-03-08T04:19:40;4.60;;;3.90;;
71648;SDS011;70112;45.624;11.760;2024-03-08T04:22:06;3.80;;;3.30;;
71648;SDS011;70112;45.624;11.760;2024-03-08T04:24:33;4.00;;;3.40;;
71648;SDS011;70112;45.624;11.760;2024-03-08T04:26:59;3.40;;;3.10;;
71648;SDS011;70112;45.624;11.760;2024-03-08T04:29:24;4.30;;;3.80;;
71648;SDS011;70112;45.624;11.760;2024-03-08T04:31:50;3.60;;;3.30;;
71648;SDS011;70112;45.624;11.760;2024-03-08T04:34:20;3.30;;;2.80;;
71648;SDS011;70112;45.624;11.760;2024-03-08T04:36:48;4.10;;;3.50;;
71648;SDS011;70112;45.624;11.760;2024-03-08T04:39:13;3.60;;;3.10;;
71648;SDS011;70112;45.624;11.760;2024-03-08T04:41:41;3.40;;;3.10;;
71648;SDS011;70112;45.624;11.760;2024-03-08T04:44:10;3.40;;;3.10;;
71648;SDS011;70112;45.624;11.760;2024-03-08T04:46:38;3.80;;;3.20;;
71648;SDS011;70112;45.624;11.760;2024-03-08T04:49:03;4.00;;;3.60;;
71648;SDS011;70112;45.624;11.760;2024-03-08T04:51:29;3.50;;;3.20;;
71648;SDS011;70112;45.624;11.760;2024-03-08T04:53:54;4.10;;;3.50;;
71648;SDS011;70112;45.624;11.760;2024-03-08T04:56:20;9.90;;;3.40;;
71648;SDS011;70112;45.624;11.760;2024-03-08T04:58:46;3.50;;;3.20;;
71648;SDS011;70112;45.624;11.760;2024-03-08T05:01:12;3.90;;;3.30;;
71648;SDS011;70112;45.624;11.760;2024-03-08T05:03:38;4.40;;;4.00;;
71648;SDS011;70112;45.624;11.760;2024-03-08T05:06:04;4.10;;;3.60;;
71648;SDS011;70112;45.624;11.760;2024-03-08T05:08:29;3.80;;;3.40;;
71648;SDS011;70112;45.624;11.760;2024-03-08T05:10:55;4.20;;;3.80;;
71648;SDS011;70112;45.624;11.760;2024-03-08T05:13:21;6.00;;;3.60;;
71648;SDS011;70112;45.624;11.760;2024-03-08T05:15:49;5.20;;;3.80;;
71648;SDS011;70112;45.624;11.760;2024-03-08T05:18:17;4.50;;;4.00;;
71648;SDS011;70112;45.624;11.760;2024-03-08T05:20:43;4.90;;;4.30;;
71648;SDS011;70112;45.624;11.760;2024-03-08T05:23:09;4.80;;;4.20;;
71648;SDS011;70112;45.624;11.760;2024-03-08T05:25:34;5.70;;;4.50;;
71648;SDS011;70112;45.624;11.760;2024-03-08T05:28:00;5.20;;;4.30;;
71648;SDS011;70112;45.624;11.760;2024-03-08T05:30:25;5.10;;;4.60;;
71648;SDS011;70112;45.624;11.760;2024-03-08T05:32:51;7.40;;;4.70;;
71648;SDS011;70112;45.624;11.760;2024-03-08T05:35:16;6.00;;;4.80;;
71648;SDS011;70112;45.624;11.760;2024-03-08T05:37:42;5.60;;;4.50;;
71648;SDS011;70112;45.624;11.760;2024-03-08T05:40:08;5.40;;;4.60;;
71648;SDS011;70112;45.624;11.760;2024-03-08T05:42:35;6.40;;;4.90;;
71648;SDS011;70112;45.624;11.760;2024-03-08T05:45:02;5.90;;;4.90;;
71648;SDS011;70112;45.624;11.760;2024-03-08T05:47:35;6.00;;;4.70;;
71648;SDS011;70112;45.624;11.760;2024-03-08T05:50:00;5.60;;;5.00;;
71648;SDS011;70112;45.624;11.760;2024-03-08T05:52:26;5.40;;;4.90;;
71648;SDS011;70112;45.624;11.760;2024-03-08T05:54:51;6.80;;;5.30;;
71648;SDS011;70112;45.624;11.760;2024-03-08T05:57:17;7.90;;;5.80;;
71648;SDS011;70112;45.624;11.760;2024-03-08T05:59:43;6.50;;;5.80;;
71648;SDS011;70112;45.624;11.760;2024-03-08T06:02:08;6.50;;;5.30;;
71648;SDS011;70112;45.624;11.760;2024-03-08T06:04:33;6.70;;;6.10;;
71648;SDS011;70112;45.624;11.760;2024-03-08T06:06:59;9.00;;;6.00;;
71648;SDS011;70112;45.624;11.760;2024-03-08T06:09:25;8.70;;;7.20;;
71648;SDS011;70112;45.624;11.760;2024-03-08T06:11:51;11.50;;;8.50;;
71648;SDS011;70112;45.624;11.760;2024-03-08T06:14:19;10.80;;;7.40;;
71648;SDS011;70112;45.624;11.760;2024-03-08T06:16:45;8.90;;;8.00;;
71648;SDS011;70112;45.624;11.760;2024-03-08T06:19:12;7.50;;;6.70;;
71648;SDS011;70112;45.624;11.760;2024-03-08T06:21:38;8.30;;;7.20;;
71648;SDS011;70112;45.624;11.760;2024-03-08T06:24:04;7.50;;;6.70;;
71648;SDS011;70112;45.624;11.760;2024-03-08T06:26:30;8.20;;;7.30;;
71648;SDS011;70112;45.624;11.760;2024-03-08T06:28:56;7.20;;;6.20;;
71648;SDS011;70112;45.624;11.760;2024-03-08T06:31:22;8.00;;;5.90;;
71648;SDS011;70112;45.624;11.760;2024-03-08T06:33:47;7.60;;;6.10;;
71648;SDS011;70112;45.624;11.760;2024-03-08T06:36:17;7.40;;;6.30;;
71648;SDS011;70112;45.624;11.760;2024-03-08T06:38:49;7.70;;;6.00;;
71648;SDS011;70112;45.624;11.760;2024-03-08T06:41:15;8.10;;;5.90;;
71648;SDS011;70112;45.624;11.760;2024-03-08T06:43:44;8.50;;;6.50;;
71648;SDS011;70112;45.624;11.760;2024-03-08T06:46:11;7.70;;;6.00;;
71648;SDS011;70112;45.624;11.760;2024-03-08T06:48:41;7.20;;;6.30;;
71648;SDS011;70112;45.624;11.760;2024-03-08T06:51:06;9.10;;;7.70;;
71648;SDS011;70112;45.624;11.760;2024-03-08T06:53:32;8.40;;;6.50;;
71648;SDS011;70112;45.624;11.760;2024-03-08T06:56:00;7.90;;;6.90;;
71648;SDS011;70112;45.624;11.760;2024-03-08T06:58:27;9.60;;;5.90;;
71648;SDS011;70112;45.624;11.760;2024-03-08T07:00:53;8.40;;;6.50;;
71648;SDS011;70112;45.624;11.760;2024-03-08T07:03:19;7.40;;;6.40;;
71648;SDS011;70112;45.624;11.760;2024-03-08T07:05:47;9.20;;;6.60;;
71648;SDS011;70112;45.624;11.760;2024-03-08T07:08:13;10.90;;;6.50;;
71648;SDS011;70112;45.624;11.760;2024-03-08T07:10:39;7.50;;;6.50;;
71648;SDS011;70112;45.624;11.760;2024-03-08T07:13:07;8.40;;;6.50;;
71648;SDS011;70112;45.624;11.760;2024-03-08T07:15:33;7.50;;;6.60;;
71648;SDS011;70112;45.624;11.760;2024-03-08T07:17:58;9.20;;;6.40;;
71648;SDS011;70112;45.624;11.760;2024-03-08T07:20:25;8.50;;;6.90;;
71648;SDS011;70112;45.624;11.760;2024-03-08T07:22:50;7.70;;;6.70;;
71648;SDS011;70112;45.624;11.760;2024-03-08T07:25:16;8.80;;;7.10;;
71648;SDS011;70112;45.624;11.760;2024-03-08T07:27:55;8.40;;;6.80;;
71648;SDS011;70112;45.624;11.760;2024-03-08T07:30:22;10.30;;;7.10;;
71648;SDS011;70112;45.624;11.760;2024-03-08T07:33:08;8.40;;;6.90;;
71648;SDS011;70112;45.624;11.760;2024-03-08T07:35:40;8.50;;;6.70;;
71648;SDS011;70112;45.624;11.760;2024-03-08T07:38:08;8.30;;;7.00;;
71648;SDS011;70112;45.624;11.760;2024-03-08T07:40:39;8.20;;;7.20;;
71648;SDS011;70112;45.624;11.760;2024-03-08T07:43:10;8.30;;;7.30;;
71648;SDS011;70112;45.624;11.760;2024-03-08T07:45:37;8.40;;;6.50;;
71648;SDS011;70112;45.624;11.760;2024-03-08T07:48:03;7.80;;;6.40;;
71648;SDS011;70112;45.624;11.760;2024-03-08T07:50:38;8.30;;;6.90;;
71648;SDS011;70112;45.624;11.760;2024-03-08T07:53:08;6.90;;;6.20;;
71648;SDS011;70112;45.624;11.760;2024-03-08T07:55:34;7.70;;;6.50;;
71648;SDS011;70112;45.624;11.760;2024-03-08T07:58:01;6.40;;;5.50;;
71648;SDS011;70112;45.624;11.760;2024-03-08T08:00:28;6.30;;;5.50;;
71648;SDS011;70112;45.624;11.760;2024-03-08T08:02:56;7.70;;;6.30;;
71648;SDS011;70112;45.624;11.760;2024-03-08T08:05:22;8.20;;;6.40;;
71648;SDS011;70112;45.624;11.760;2024-03-08T08:07:47;7.80;;;5.90;;
71648;SDS011;70112;45.624;11.760;2024-03-08T08:10:13;9.00;;;6.40;;
71648;SDS011;70112;45.624;11.760;2024-03-08T08:12:51;7.90;;;5.90;;
71648;SDS011;70112;45.624;11.760;2024-03-08T08:15:19;8.60;;;6.70;;
71648;SDS011;70112;45.624;11.760;2024-03-08T08:17:45;8.60;;;6.90;;
71648;SDS011;70112;45.624;11.760;2024-03-08T08:20:11;7.70;;;6.50;;
71648;SDS011;70112;45.624;11.760;2024-03-08T08:22:41;8.70;;;6.50;;
71648;SDS011;70112;45.624;11.760;2024-03-08T08:25:08;7.00;;;6.00;;
71648;SDS011;70112;45.624;11.760;2024-03-08T08:27:34;6.70;;;6.00;;
71648;SDS011;70112;45.624;11.760;2024-03-08T08:30:02;7.90;;;5.70;;
71648;SDS011;70112;45.624;11.760;2024-03-08T08:32:33;8.90;;;6.10;;
71648;SDS011;70112;45.624;11.760;2024-03-08T08:35:05;7.20;;;6.40;;
71648;SDS011;70112;45.624;11.760;2024-03-08T08:37:31;7.50;;;6.60;;
71648;SDS011;70112;45.624;11.760;2024-03-08T08:39:57;8.20;;;6.50;;
71648;SDS011;70112;45.624;11.760;2024-03-08T08:42:23;6.70;;;6.00;;
71648;SDS011;70112;45.624;11.760;2024-03-08T08:44:49;8.60;;;6.30;;
71648;SDS011;70112;45.624;11.760;2024-03-08T08:47:16;8.00;;;5.70;;
71648;SDS011;70112;45.624;11.760;2024-03-08T08:49:44;7.10;;;5.60;;
71648;SDS011;70112;45.624;11.760;2024-03-08T08:52:12;8.00;;;6.10;;
71648;SDS011;70112;45.624;11.760;2024-03-08T08:54:38;7.50;;;6.10;;
71648;SDS011;70112;45.624;11.760;2024-03-08T08:57:03;7.00;;;5.90;;
71648;SDS011;70112;45.624;11.760;2024-03-08T08:59:35;6.80;;;6.10;;
71648;SDS011;70112;45.624;11.760;2024-03-08T09:02:02;7.00;;;6.30;;
71648;SDS011;70112;45.624;11.760;2024-03-08T09:04:29;6.80;;;6.00;;
71648;SDS011;70112;45.624;11.760;2024-03-08T09:06:56;10.20;;;6.40;;
71648;SDS011;70112;45.624;11.760;2024-03-08T09:09:22;8.80;;;6.50;;
71648;SDS011;70112;45.624;11.760;2024-03-08T09:11:48;8.60;;;7.20;;
71648;SDS011;70112;45.624;11.760;2024-03-08T09:14:14;7.90;;;6.10;;
71648;SDS011;70112;45.624;11.760;2024-03-08T09:16:40;7.30;;;5.70;;
71648;SDS011;70112;45.624;11.760;2024-03-08T09:19:06;8.20;;;6.30;;
71648;SDS011;70112;45.624;11.760;2024-03-08T09:21:32;7.00;;;6.00;;
71648;SDS011;70112;45.624;11.760;2024-03-08T09:24:00;7.50;;;6.20;;
71648;SDS011;70112;45.624;11.760;2024-03-08T09:26:26;8.30;;;6.00;;
71648;SDS011;70112;45.624;11.760;2024-03-08T09:28:52;7.60;;;6.20;;
71648;SDS011;70112;45.624;11.760;2024-03-08T09:31:17;7.60;;;6.40;;
71648;SDS011;70112;45.624;11.760;2024-03-08T09:33:43;9.60;;;6.80;;
71648;SDS011;70112;45.624;11.760;2024-03-08T09:36:08;7.80;;;6.80;;
71648;SDS011;70112;45.624;11.760;2024-03-08T09:38:34;7.70;;;6.30;;
71648;SDS011;70112;45.624;11.760;2024-03-08T09:41:00;7.70;;;6.50;;
71648;SDS011;70112;45.624;11.760;2024-03-08T09:43:28;9.00;;;7.20;;
71648;SDS011;70112;45.624;11.760;2024-03-08T09:45:55;8.10;;;7.20;;
71648;SDS011;70112;45.624;11.760;2024-03-08T09:48:21;9.30;;;7.30;;
71648;SDS011;70112;45.624;11.760;2024-03-08T09:50:47;10.20;;;6.30;;
71648;SDS011;70112;45.624;11.760;2024-03-08T09:53:13;8.50;;;7.00;;
71648;SDS011;70112;45.624;11.760;2024-03-08T09:55:39;10.50;;;7.50;;
71648;SDS011;70112;45.624;11.760;2024-03-08T09:58:12;9.70;;;6.70;;
71648;SDS011;70112;45.624;11.760;2024-03-08T10:00:53;8.60;;;7.00;;
71648;SDS011;70112;45.624;11.760;2024-03-08T10:03:27;12.00;;;10.10;;
71648;SDS011;70112;45.624;11.760;2024-03-08T10:05:53;13.00;;;11.00;;
71648;SDS011;70112;45.624;11.760;2024-03-08T10:08:26;9.90;;;8.90;;
71648;SDS011;70112;45.624;11.760;2024-03-08T10:10:55;9.30;;;8.00;;
71648;SDS011;70112;45.624;11.760;2024-03-08T10:13:24;13.20;;;8.80;;
71648;SDS011;70112;45.624;11.760;2024-03-08T10:15:53;8.90;;;7.80;;
71648;SDS011;70112;45.624;11.760;2024-03-08T10:18:19;15.40;;;11.00;;
71648;SDS011;70112;45.624;11.760;2024-03-08T10:20:46;12.50;;;9.40;;
71648;SDS011;70112;45.624;11.760;2024-03-08T10:23:29;9.90;;;8.70;;
71648;SDS011;70112;45.624;11.760;2024-03-08T10:25:55;10.90;;;8.20;;
71648;SDS011;70112;45.624;11.760;2024-03-08T10:28:23;9.60;;;8.20;;
71648;SDS011;70112;45.624;11.760;2024-03-08T10:30:56;8.70;;;7.80;;
71648;SDS011;70112;45.624;11.760;2024-03-08T10:33:23;10.10;;;8.60;;
71648;SDS011;70112;45.624;11.760;2024-03-08T10:35:48;10.30;;;8.90;;
71648;SDS011;70112;45.624;11.760;2024-03-08T10:38:17;9.80;;;8.40;;
71648;SDS011;70112;45.624;11.760;2024-03-08T10:40:45;9.30;;;8.20;;
71648;SDS011;70112;45.624;11.760;2024-03-08T10:43:24;13.20;;;8.60;;
71648;SDS011;70112;45.624;11.760;2024-03-08T10:46:06;10.10;;;8.30;;
71648;SDS011;70112;45.624;11.760;2024-03-08T10:48:44;10.80;;;7.50;;
71648;SDS011;70112;45.624;11.760;2024-03-08T10:51:11;9.20;;;7.60;;
71648;SDS011;70112;45.624;11.760;2024-03-08T10:53:38;11.50;;;8.90;;
71648;SDS011;70112;45.624;11.760;2024-03-08T10:56:07;10.00;;;8.20;;
71648;SDS011;70112;45.624;11.760;2024-03-08T10:58:36;11.30;;;8.90;;
71648;SDS011;70112;45.624;11.760;2024-03-08T11:01:02;12.50;;;9.10;;
71648;SDS011;70112;45.624;11.760;2024-03-08T11:06:17;13.30;;;10.60;;
71648;SDS011;70112;45.624;11.760;2024-03-08T11:08:48;15.30;;;11.00;;
71648;SDS011;70112;45.624;11.760;2024-03-08T11:11:41;12.30;;;9.50;;
71648;SDS011;70112;45.624;11.760;2024-03-08T11:14:42;12.80;;;9.30;;
71648;SDS011;70112;45.624;11.760;2024-03-08T11:17:08;13.40;;;9.80;;
71648;SDS011;70112;45.624;11.760;2024-03-08T11:19:33;11.70;;;9.40;;
71648;SDS011;70112;45.624;11.760;2024-03-08T11:22:00;12.20;;;9.60;;
71648;SDS011;70112;45.624;11.760;2024-03-08T11:24:27;12.70;;;10.00;;
71648;SDS011;70112;45.624;11.760;2024-03-08T11:26:59;13.50;;;10.50;;
71648;SDS011;70112;45.624;11.760;2024-03-08T11:32:08;13.70;;;11.10;;
71648;SDS011;70112;45.624;11.760;2024-03-08T11:34:39;12.10;;;9.90;;
71648;SDS011;70112;45.624;11.760;2024-03-08T11:37:13;14.40;;;10.40;;
71648;SDS011;70112;45.624;11.760;2024-03-08T11:39:40;12.10;;;9.40;;
71648;SDS011;70112;45.624;11.760;2024-03-08T11:42:12;13.00;;;10.30;;
71648;SDS011;70112;45.624;11.760;2024-03-08T11:44:37;13.40;;;10.40;;
71648;SDS011;70112;45.624;11.760;2024-03-08T11:47:08;11.80;;;9.80;;
71648;SDS011;70112;45.624;11.760;2024-03-08T11:49:35;13.10;;;10.40;;
71648;SDS011;70112;45.624;11.760;2024-03-08T11:52:01;12.00;;;9.70;;
71648;SDS011;70112;45.624;11.760;2024-03-08T11:54:28;13.70;;;10.20;;
71648;SDS011;70112;45.624;11.760;2024-03-08T11:56:56;12.30;;;9.70;;
71648;SDS011;70112;45.624;11.760;2024-03-08T11:59:28;12.10;;;9.80;;
71648;SDS011;70112;45.624;11.760;2024-03-08T12:02:02;13.00;;;10.10;;
71648;SDS011;70112;45.624;11.760;2024-03-08T12:04:30;12.80;;;10.10;;
71648;SDS011;70112;45.624;11.760;2024-03-08T12:06:59;12.90;;;10.40;;
71648;SDS011;70112;45.624;11.760;2024-03-08T12:09:30;12.20;;;10.30;;
71648;SDS011;70112;45.624;11.760;2024-03-08T12:11:56;11.30;;;9.40;;
71648;SDS011;70112;45.624;11.760;2024-03-08T12:14:24;12.60;;;9.30;;
71648;SDS011;70112;45.624;11.760;2024-03-08T12:16:50;11.90;;;9.60;;
71648;SDS011;70112;45.624;11.760;2024-03-08T12:19:16;12.50;;;9.80;;
71648;SDS011;70112;45.624;11.760;2024-03-08T12:21:42;14.50;;;10.60;;
71648;SDS011;70112;45.624;11.760;2024-03-08T12:24:15;14.40;;;10.10;;
71648;SDS011;70112;45.624;11.760;2024-03-08T12:26:45;22.50;;;12.10;;
71648;SDS011;70112;45.624;11.760;2024-03-08T12:29:25;14.10;;;11.00;;
71648;SDS011;70112;45.624;11.760;2024-03-08T12:31:54;12.70;;;9.50;;
71648;SDS011;70112;45.624;11.760;2024-03-08T12:34:23;13.40;;;10.00;;
71648;SDS011;70112;45.624;11.760;2024-03-08T12:36:51;11.40;;;9.50;;
71648;SDS011;70112;45.624;11.760;2024-03-08T12:39:19;11.40;;;9.40;;
71648;SDS011;70112;45.624;11.760;2024-03-08T12:41:48;12.80;;;10.20;;
71648;SDS011;70112;45.624;11.760;2024-03-08T12:44:17;12.10;;;9.00;;
71648;SDS011;70112;45.624;11.760;2024-03-08T12:46:44;12.00;;;9.70;;
71648;SDS011;70112;45.624;11.760;2024-03-08T12:49:10;11.30;;;9.00;;
71648;SDS011;70112;45.624;11.760;2024-03-08T12:51:38;10.90;;;9.10;;
71648;SDS011;70112;45.624;11.760;2024-03-08T12:54:05;12.20;;;9.40;;
71648;SDS011;70112;45.624;11.760;2024-03-08T12:56:33;13.10;;;9.70;;
71648;SDS011;70112;45.624;11.760;2024-03-08T12:59:00;13.00;;;9.60;;
71648;SDS011;70112;45.624;11.760;2024-03-08T13:01:27;13.80;;;9.40;;
71648;SDS011;70112;45.624;11.760;2024-03-08T13:03:53;11.60;;;9.30;;
71648;SDS011;70112;45.624;11.760;2024-03-08T13:06:20;13.30;;;10.40;;
71648;SDS011;70112;45.624;11.760;2024-03-08T13:08:50;13.90;;;10.90;;
71648;SDS011;70112;45.624;11.760;2024-03-08T13:11:19;12.20;;;9.90;;
71648;SDS011;70112;45.624;11.760;2024-03-08T13:13:45;13.90;;;10.00;;
71648;SDS011;70112;45.624;11.760;2024-03-08T13:16:11;13.00;;;9.00;;
71648;SDS011;70112;45.624;11.760;2024-03-08T13:18:40;12.80;;;10.00;;
71648;SDS011;70112;45.624;11.760;2024-03-08T13:21:10;14.80;;;9.90;;
71648;SDS011;70112;45.624;11.760;2024-03-08T13:23:38;12.00;;;9.30;;
71648;SDS011;70112;45.624;11.760;2024-03-08T13:26:10;13.00;;;9.50;;
71648;SDS011;70112;45.624;11.760;2024-03-08T13:28:41;13.10;;;9.50;;
71648;SDS011;70112;45.624;11.760;2024-03-08T13:31:14;9.70;;;7.80;;
71648;SDS011;70112;45.624;11.760;2024-03-08T13:33:40;11.50;;;9.40;;
71648;SDS011;70112;45.624;11.760;2024-03-08T13:36:12;14.10;;;10.30;;
71648;SDS011;70112;45.624;11.760;2024-03-08T13:38:45;15.10;;;10.40;;
71648;SDS011;70112;45.624;11.760;2024-03-08T13:41:12;13.20;;;10.70;;
71648;SDS011;70112;45.624;11.760;2024-03-08T13:43:41;12.00;;;9.70;;
71648;SDS011;70112;45.624;11.760;2024-03-08T13:46:07;13.60;;;10.10;;
71648;SDS011;70112;45.624;11.760;2024-03-08T13:48:33;12.10;;;10.00;;
71648;SDS011;70112;45.624;11.760;2024-03-08T13:50:59;11.50;;;8.60;;
71648;SDS011;70112;45.624;11.760;2024-03-08T13:53:25;12.60;;;9.70;;
71648;SDS011;70112;45.624;11.760;2024-03-08T13:55:51;11.30;;;9.30;;
71648;SDS011;70112;45.624;11.760;2024-03-08T13:58:17;11.40;;;8.70;;
71648;SDS011;70112;45.624;11.760;2024-03-08T14:00:43;12.40;;;9.40;;
71648;SDS011;70112;45.624;11.760;2024-03-08T14:03:11;11.30;;;8.80;;
71648;SDS011;70112;45.624;11.760;2024-03-08T14:05:41;14.40;;;8.90;;
71648;SDS011;70112;45.624;11.760;2024-03-08T14:08:08;9.70;;;8.60;;
71648;SDS011;70112;45.624;11.760;2024-03-08T14:10:37;12.90;;;9.60;;
71648;SDS011;70112;45.624;11.760;2024-03-08T14:13:04;12.70;;;9.40;;
71648;SDS011;70112;45.624;11.760;2024-03-08T14:15:34;11.30;;;8.80;;
71648;SDS011;70112;45.624;11.760;2024-03-08T14:18:00;12.60;;;9.20;;
71648;SDS011;70112;45.624;11.760;2024-03-08T14:20:27;11.90;;;8.80;;
71648;SDS011;70112;45.624;11.760;2024-03-08T14:22:55;15.90;;;8.70;;
71648;SDS011;70112;45.624;11.760;2024-03-08T14:25:22;13.70;;;9.10;;
71648;SDS011;70112;45.624;11.760;2024-03-08T14:27:52;10.90;;;8.20;;
71648;SDS011;70112;45.624;11.760;2024-03-08T14:30:19;11.90;;;8.90;;
71648;SDS011;70112;45.624;11.760;2024-03-08T14:33:04;11.50;;;8.60;;
71648;SDS011;70112;45.624;11.760;2024-03-08T14:35:31;11.90;;;9.20;;
71648;SDS011;70112;45.624;11.760;2024-03-08T14:37:57;13.20;;;9.50;;
71648;SDS011;70112;45.624;11.760;2024-03-08T14:40:24;11.90;;;9.40;;